Time;durP1;ratioP1;P1;durP2;ratioP2;P2;SDS_P1;SDS_P2;PMS_P1;PMS_P2;Temp;Humidity;BMP_temperature;BMP_pressure;BME280_temperature;BME280_humidity;BME280_pressure;Samples;Min_cycle;Max_cycle;Signal;HPM_P1;HPM_P2
2024/01/23 00:02:24;;;;;;;62.90;31.15;;;;;;;11.95;97.96;102517.97;10298735;28;96711;-78
2024/01/23 00:07:27;;;;;;;60.58;31.75;;;;;;;12.03;97.30;102510.84;10329426;28;97070;-79
2024/01/23 00:12:31;;;;;;;54.88;30.50;;;;;;;12.04;96.83;102509.09;10328400;28;97629;-78
2024/01/23 00:17:36;;;;;;;60.78;31.55;;;;;;;12.01;96.94;102515.25;10328744;28;96623;-78
2024/01/23 00:22:40;;;;;;;52.97;29.35;;;;;;;11.86;97.58;102499.56;10327402;28;97683;-79
2024/01/23 00:27:43;;;;;;;57.70;30.67;;;;;;;11.78;97.66;102497.91;10287780;28;98152;-79
2024/01/23 00:32:48;;;;;;;64.68;31.50;;;;;;;11.68;99.54;102483.94;10288060;28;97454;-79
2024/01/23 00:37:51;;;;;;;;;;;;;;;11.71;99.54;102483.00;10310650;28;97364;-78
2024/01/23 00:42:54;;;;;;;59.58;31.85;;;;;;;11.71;99.05;102477.75;10328980;28;97026;-79
2024/01/23 00:48:00;;;;;;;58.38;31.85;;;;;;;11.66;99.25;102472.53;10318204;28;96839;-79
2024/01/23 00:53:04;;;;;;;60.25;30.83;;;;;;;11.60;99.67;102463.78;10287718;28;97310;-78
2024/01/23 00:58:07;;;;;;;58.17;31.45;;;;;;;11.76;99.67;102478.56;10287517;28;96882;-79
2024/01/23 01:03:13;;;;;;;55.65;30.55;;;;;;;11.86;98.94;102473.19;10286134;28;97265;-79
2024/01/23 01:08:17;;;;;;;60.42;31.08;;;;;;;11.88;98.66;102471.44;10288501;28;96963;-78
2024/01/23 01:13:21;;;;;;;57.15;29.73;;;;;;;11.95;98.47;102466.97;10328823;28;96752;-79
2024/01/23 01:18:25;;;;;;;60.05;30.90;;;;;;;11.88;97.25;102478.47;10334311;28;96828;-79
2024/01/23 01:23:29;;;;;;;;;;;;;;;11.85;98.37;102486.41;10310975;28;97197;-79
2024/01/23 01:28:32;;;;;;;52.80;29.00;;;;;;;11.89;98.56;102486.34;10294227;28;97317;-79
2024/01/23 01:33:38;;;;;;;52.30;28.88;;;;;;;11.89;98.79;102480.22;10293247;28;96679;-78
2024/01/23 01:38:42;;;;;;;64.13;30.83;;;;;;;11.87;97.70;102469.69;10293467;28;97519;-78
2024/01/23 01:43:50;;;;;;;58.42;31.73;;;;;;;11.78;99.19;102459.22;10292619;28;96742;-78
2024/01/23 01:48:55;;;;;;;59.50;30.95;;;;;;;11.79;99.42;102449.53;10291933;28;96711;-79
2024/01/23 01:54:00;;;;;;;58.97;30.60;;;;;;;11.77;100.00;102456.59;10291439;28;96690;-78
2024/01/23 01:59:05;;;;;;;63.45;33.67;;;;;;;11.76;100.00;102453.06;10292338;28;96762;-79
2024/01/23 02:04:10;;;;;;;57.78;30.35;;;;;;;11.63;100.00;102450.56;10292791;28;97431;-78
2024/01/23 02:09:14;;;;;;;57.55;30.25;;;;;;;11.56;100.00;102440.97;10292211;28;97208;-79
2024/01/23 02:14:17;;;;;;;67.32;32.97;;;;;;;11.55;100.00;102450.63;10291470;28;96980;-78
2024/01/23 02:19:22;;;;;;;55.33;30.85;;;;;;;11.58;100.00;102453.22;10296575;28;96765;-79
2024/01/23 02:24:27;;;;;;;65.35;31.23;;;;;;;11.61;100.00;102454.97;10290669;28;96688;-79
2024/01/23 02:29:36;;;;;;;66.60;31.90;;;;;;;11.62;100.00;102454.97;10292148;28;96855;-78
2024/01/23 02:34:40;;;;;;;59.20;27.63;;;;;;;11.65;100.00;102454.94;10291892;28;96802;-78
2024/01/23 02:39:45;;;;;;;65.40;29.13;;;;;;;11.68;100.00;102452.28;10290822;28;96901;-79
2024/01/23 02:44:48;;;;;;;59.78;27.73;;;;;;;11.71;100.00;102451.38;10289009;28;97360;-79
2024/01/23 02:49:52;;;;;;;65.38;28.42;;;;;;;11.70;100.00;102445.22;10290595;28;97394;-79
2024/01/23 02:54:57;;;;;;;54.03;25.35;;;;;;;11.77;100.00;102449.53;10290745;28;96856;-78
2024/01/23 03:00:00;;;;;;;48.78;22.40;;;;;;;11.82;100.00;102452.16;10289719;28;97228;-79
2024/01/23 03:05:04;;;;;;;49.10;23.63;;;;;;;11.79;100.00;102460.06;10290144;28;97324;-79
2024/01/23 03:10:09;;;;;;;51.67;23.17;;;;;;;11.83;100.00;102461.81;10290538;28;96598;-79
2024/01/23 03:15:13;;;;;;;45.35;23.45;;;;;;;11.87;100.00;102455.63;10289513;28;97444;-78
2024/01/23 03:20:17;;;;;;;50.70;22.67;;;;;;;11.92;100.00;102456.44;10290239;28;96792;-79
2024/01/23 03:25:21;;;;;;;53.97;23.20;;;;;;;11.93;100.00;102447.63;10289647;28;98203;-79
2024/01/23 03:30:29;;;;;;;51.10;24.67;;;;;;;11.85;100.00;102450.34;10289469;28;96740;-79
2024/01/23 03:35:32;;;;;;;51.65;25.48;;;;;;;11.76;100.00;102441.66;10288264;28;96866;-79
2024/01/23 03:40:38;;;;;;;53.38;26.67;;;;;;;11.72;100.00;102440.81;10289151;28;96790;-79
2024/01/23 03:45:42;;;;;;;60.58;27.65;;;;;;;11.67;100.00;102433.81;10288835;28;97031;-78
2024/01/23 03:50:45;;;;;;;56.92;27.15;;;;;;;11.64;100.00;102428.56;10289215;28;96664;-78
2024/01/23 03:55:50;;;;;;;53.05;26.55;;;;;;;11.67;100.00;102431.19;10288944;28;97266;-78
2024/01/23 04:00:57;;;;;;;51.97;25.85;;;;;;;11.71;100.00;102425.00;10289239;28;97527;-78
2024/01/23 04:06:01;;;;;;;55.50;27.25;;;;;;;11.76;100.00;102426.69;10288536;28;96828;-78
2024/01/23 04:11:07;;;;;;;65.80;29.05;;;;;;;11.66;100.00;102430.31;10289054;28;96700;-78
2024/01/23 04:16:11;;;;;;;61.33;27.63;;;;;;;11.66;100.00;102429.44;10288517;28;97482;-79
2024/01/23 04:21:17;;;;;;;55.55;26.92;;;;;;;11.71;100.00;102432.91;10288341;28;96756;-79
2024/01/23 04:26:25;;;;;;;47.15;22.20;;;;;;;11.81;100.00;102430.16;10255434;28;97556;-78
2024/01/23 04:31:29;;;;;;;47.75;23.27;;;;;;;11.92;100.00;102432.69;10247189;28;97177;-79
2024/01/23 04:36:34;;;;;;;40.93;22.33;;;;;;;12.00;100.00;102437.00;10276260;28;96787;-78
2024/01/23 04:41:41;;;;;;;40.63;20.98;;;;;;;12.03;100.00;102436.97;10288010;28;96878;-79
2024/01/23 04:46:46;;;;;;;39.08;20.73;;;;;;;12.09;100.00;102446.59;10293400;28;96788;-78
2024/01/23 04:51:50;;;;;;;39.08;20.83;;;;;;;12.11;100.00;102456.25;10295142;28;96612;-79
2024/01/23 04:56:55;;;;;;;40.80;20.98;;;;;;;12.16;100.00;102457.06;10294210;28;97037;-78
2024/01/23 05:01:58;;;;;;;49.72;22.77;;;;;;;12.07;100.00;102472.09;10295464;28;96962;-78
2024/01/23 05:07:03;;;;;;;45.92;24.88;;;;;;;11.96;100.00;102477.50;10293963;28;97481;-78
2024/01/23 05:12:09;;;;;;;49.78;25.20;;;;;;;11.93;100.00;102474.88;10324761;28;96836;-79
2024/01/23 05:17:13;;;;;;;51.15;26.23;;;;;;;11.87;100.00;102472.31;10277257;22;99304;-78
2024/01/23 05:22:16;;;;;;;47.25;24.80;;;;;;;11.78;100.00;102474.16;10224608;28;96753;-79
2024/01/23 05:27:21;;;;;;;50.45;25.77;;;;;;;11.69;100.00;102477.75;10252382;28;96690;-79
2024/01/23 05:32:24;;;;;;;46.83;23.20;;;;;;;11.75;100.00;102475.09;10252669;28;96820;-78
2024/01/23 05:37:28;;;;;;;44.70;22.10;;;;;;;11.94;100.00;102475.78;10216375;28;96897;-79
2024/01/23 05:42:34;;;;;;;37.60;20.00;;;;;;;12.02;100.00;102466.00;10212645;28;97106;-79
2024/01/23 05:47:38;;;;;;;42.47;21.38;;;;;;;12.01;100.00;102462.47;10211378;28;96844;-79
2024/01/23 05:52:43;;;;;;;38.37;20.60;;;;;;;12.03;100.00;102449.31;10213333;28;96708;-79
2024/01/23 05:57:50;;;;;;;38.33;20.10;;;;;;;12.09;100.00;102451.84;10211548;28;97125;-79
2024/01/23 06:02:54;;;;;;;37.17;20.23;;;;;;;12.13;100.00;102453.59;10212056;28;97464;-79
2024/01/23 06:07:59;;;;;;;;;;;;;;;12.16;100.00;102474.66;10210670;28;96867;-79
2024/01/23 06:13:06;;;;;;;33.13;17.88;;;;;;;12.20;100.00;102471.94;10212406;28;96942;-78
2024/01/23 06:18:11;;;;;;;37.28;19.92;;;;;;;12.20;100.00;102481.66;10234964;28;96719;-78
2024/01/23 06:23:15;;;;;;;34.67;19.52;;;;;;;12.26;100.00;102492.13;10250858;28;97298;-78
2024/01/23 06:28:24;;;;;;;36.93;18.87;;;;;;;12.32;100.00;102490.28;10251038;28;96686;-78
2024/01/23 06:33:29;;;;;;;36.13;19.33;;;;;;;12.36;100.00;102494.66;10250081;28;96799;-78
2024/01/23 06:38:34;;;;;;;37.28;19.48;;;;;;;12.35;100.00;102489.41;10250751;28;96797;-78
2024/01/23 06:43:40;;;;;;;;;;;;;;;12.35;100.00;102495.56;10251826;28;96733;-78
2024/01/23 06:48:44;;;;;;;36.53;18.40;;;;;;;12.34;100.00;102501.72;10250078;28;97309;-79
2024/01/23 06:53:49;;;;;;;36.53;18.85;;;;;;;12.38;100.00;102515.75;10211873;28;96826;-79
2024/01/23 06:58:56;;;;;;;33.72;18.40;;;;;;;12.44;100.00;102518.34;10209092;28;97395;-79
2024/01/23 07:04:02;;;;;;;31.17;17.35;;;;;;;12.45;100.00;102523.59;10209238;28;97213;-78
2024/01/23 07:09:06;;;;;;;38.63;19.93;;;;;;;12.38;100.00;102529.84;10209700;28;96688;-78
2024/01/23 07:14:11;;;;;;;38.75;20.27;;;;;;;12.27;100.00;102533.50;10246499;28;96807;-78
2024/01/23 07:19:14;;;;;;;39.08;21.17;;;;;;;12.23;100.00;102534.41;10249467;28;97659;-78
2024/01/23 07:24:22;;;;;;;38.10;19.55;;;;;;;12.23;100.00;102531.78;10239304;28;96771;-79
2024/01/23 07:29:27;;;;;;;36.67;19.58;;;;;;;12.13;100.00;102515.13;10208688;28;96850;-79
2024/01/23 07:34:31;;;;;;;39.35;20.30;;;;;;;12.14;100.00;102522.19;10209279;28;96769;-79
2024/01/23 07:39:36;;;;;;;39.83;20.67;;;;;;;12.17;100.00;102500.13;10208530;28;96736;-79
2024/01/23 07:44:42;;;;;;;33.78;19.83;;;;;;;12.15;100.00;102492.25;10208838;28;97205;-79
2024/01/23 07:49:46;;;;;;;29.42;16.98;;;;;;;12.17;100.00;102494.88;10207004;28;96863;-79
2024/01/23 07:54:52;;;;;;;;;;;;;;;12.21;100.00;102502.75;10208701;28;96749;-79
2024/01/23 07:59:57;;;;;;;;;;;;;;;12.20;100.00;102505.41;10209599;28;97729;-79
2024/01/23 08:05:00;;;;;;;;;;;;;;;12.28;100.00;102504.44;10219874;28;97271;-79
2024/01/23 08:10:06;;;;;;;;;;;;;;;12.41;100.00;102507.81;10248891;28;97172;-78
2024/01/23 08:15:12;;;;;;;;;;;;;;;12.50;100.00;102520.91;10241318;28;97202;-78
2024/01/23 08:20:16;;;;;;;;;;;;;;;12.53;100.00;102532.31;10212671;28;96741;-78
2024/01/23 08:25:20;;;;;;;;;;;;;;;12.66;100.00;102524.28;10216052;28;97144;-79
2024/01/23 08:30:27;;;;;;;;;;;;;;;12.78;100.00;102525.00;10215161;28;97564;-78
2024/01/23 08:35:32;;;;;;;;;;;;;;;12.83;100.00;102524.94;10250628;28;96869;-78
2024/01/23 08:40:37;;;;;;;;;;;;;;;12.89;100.00;102525.75;10254159;28;97053;-78
2024/01/23 08:45:44;;;;;;;;;;;;;;;12.93;100.00;102535.38;10254967;28;97559;-79
2024/01/23 08:50:48;;;;;;;;;;;;;;;12.88;100.00;102542.47;10254057;28;96705;-78
2024/01/23 08:55:52;;;;;;;;;;;;;;;13.03;100.00;102552.88;10254769;28;97343;-79
2024/01/23 09:01:00;;;;;;;;;;;;;;;13.09;100.00;102554.53;10254507;28;96708;-79
2024/01/23 09:06:04;;;;;;;;;;;;;;;13.11;99.96;102564.22;10246452;28;97137;-79
2024/01/23 09:11:08;;;;;;;;;;;;;;;13.08;99.55;102573.94;10227232;28;96917;-79
2024/01/23 09:16:14;;;;;;;;;;;;;;;13.03;99.40;102573.13;10254315;28;96665;-78
2024/01/23 09:21:22;;;;;;;;;;;;;;;13.04;99.76;102566.94;10253790;28;96740;-79
2024/01/23 09:26:26;;;;;;;;;;;;;;;13.19;99.67;102578.19;10218777;28;97109;-78
2024/01/23 09:31:33;;;;;;;;;;;;;;;13.41;98.98;102576.13;10211680;28;97038;-78
2024/01/23 09:36:37;;;;;;;;;;;;;;;13.53;98.08;102571.56;10212972;28;96705;-79
2024/01/23 09:41:45;;;;;;;;;;;;;;;13.60;97.59;102575.84;10213331;28;96751;-79
2024/01/23 09:46:52;;;;;;;;;;;;;;;13.80;97.09;102578.16;10212413;28;96942;-78
2024/01/23 09:51:56;;;;;;;;;;;;;;;13.87;96.17;102573.66;10212740;28;97075;-79
2024/01/23 09:57:01;;;;;;;;;;;;;;;14.12;95.62;102575.91;10212850;28;96844;-79
2024/01/23 10:02:06;;;;;;;;;;;;;;;14.44;94.09;102578.84;10230841;28;96593;-79
2024/01/23 10:07:09;;;;;;;;;;;;;;;14.51;92.74;102582.25;10252930;28;96913;-79
2024/01/23 10:12:13;;;;;;;;;;;;;;;14.73;92.24;102592.41;10252381;28;96644;-78
2024/01/23 10:17:17;;;;;;;;;;;;;;;14.82;91.04;102597.53;10217722;28;96862;-79
2024/01/23 10:22:21;;;;;;;;;;;;;;;14.90;91.00;102608.00;10210643;28;96629;-79
2024/01/23 10:27:24;;;;;;;;;;;;;;;14.89;89.64;102616.84;10211501;28;97115;-78
2024/01/23 10:32:29;;;;;;;;;;;;;;;15.00;89.50;102630.75;10211510;28;96821;-79
2024/01/23 10:37:34;;;;;;;;;;;;;;;15.09;89.10;102633.25;10211026;28;97044;-78
2024/01/23 10:42:39;;;;;;;;;;;;;;;15.20;88.37;102633.88;10209989;28;97141;-79
2024/01/23 10:47:46;;;;;;;;;;;;;;;15.41;88.12;102632.56;10211092;28;96921;-79
2024/01/23 10:52:50;;;;;;;;;;;;;;;15.45;86.44;102634.25;10210771;28;96701;-78
2024/01/23 10:57:57;;;;;;;;;;;;;;;15.47;86.02;102636.00;10213183;28;97280;-79
2024/01/23 11:03:04;;;;;;;;;;;;;;;15.53;85.25;102640.25;10251068;28;96756;-78
2024/01/23 11:08:11;;;;;;;;;;;;;;;15.58;85.26;102638.41;10218330;28;97196;-79
2024/01/23 11:13:17;;;;;;;;;;;;;;;15.90;85.11;102639.41;10239891;28;97469;-78
2024/01/23 11:18:28;;;;;;;;;;;;;;;15.76;84.20;102643.28;10250856;28;96920;-79
2024/01/23 11:23:33;;;;;;;;;;;;;;;15.78;83.47;102639.69;10230188;28;96937;-79
2024/01/23 11:28:36;;;;;;;;;;;;;;;15.91;83.67;102617.25;10208981;28;96790;-78
2024/01/23 11:33:41;;;;;;;;;;;;;;;15.93;83.44;102610.13;10209567;28;96717;-79
2024/01/23 11:38:45;;;;;;;;;;;;;;;15.97;83.13;102602.94;10209699;28;97144;-79
2024/01/23 11:43:51;;;;;;;;;;;;;;;16.03;82.26;102599.28;10209271;28;96935;-79
2024/01/23 11:48:55;;;;;;;;;;;;;;;16.15;82.29;102589.19;10209657;28;97318;-79
2024/01/23 11:53:59;;;;;;;;;;;;;;;16.09;82.06;102578.75;10209135;28;97048;-79
2024/01/23 11:59:02;;;;;;;;;;;;;;;16.13;82.09;102580.41;10209452;28;96651;-79
2024/01/23 12:04:11;;;;;;;;;;;;;;;16.18;81.41;102559.91;10247153;28;97060;-79
2024/01/23 12:09:14;;;;;;;;;;;;;;;16.29;81.35;102555.19;10248875;28;97183;-79
2024/01/23 12:14:17;;;;;;;;;;;;;;;16.17;81.27;102544.88;10229890;28;98152;-79
2024/01/23 12:19:22;;;;;;;;;;;;;;;16.42;80.56;102535.38;10208082;28;97160;-79
2024/01/23 12:24:25;;;;;;;;;;;;;;;16.38;80.60;102519.50;10207949;28;96737;-79
2024/01/23 12:29:28;;;;;;;;;;;;;;;16.42;79.90;102508.81;10208510;28;96661;-79
2024/01/23 12:34:34;;;;;;;;;;;;;;;16.40;80.22;102496.47;10207564;28;97453;-78
2024/01/23 12:39:37;;;;;;;;;;;;;;;16.44;79.80;102483.06;10207702;28;96755;-79
2024/01/23 12:44:40;;;;;;;;;;;;;;;16.37;79.67;102477.91;10207347;28;96936;-79
2024/01/23 12:49:45;;;;;;;;;;;;;;;16.54;79.52;102481.00;10207770;28;97480;-78
2024/01/23 12:54:49;;;;;;;;;;;;;;;16.54;79.02;102470.38;10221827;28;97037;-79
2024/01/23 12:59:52;;;;;;;;;;;;;;;16.67;78.85;102474.44;10247096;28;96609;-79
2024/01/23 13:04:56;;;;;;;;;;;;;;;16.75;77.71;102459.09;10235198;28;97364;-79
2024/01/23 13:10:01;;;;;;;;;;;;;;;16.63;78.47;102452.38;10218192;28;97336;-78
2024/01/23 13:15:05;;;;;;;;;;;;;;;16.81;78.09;102450.94;10254295;28;97048;-79
2024/01/23 13:20:10;;;;;;;;;;;;;;;16.81;78.09;102435.84;10252941;28;96750;-79
2024/01/23 13:25:17;;;;;;;;;;;;;;;16.74;77.86;102428.13;10213595;28;97348;-79
2024/01/23 13:30:21;;;;;;;;;;;;;;;16.71;77.93;102429.06;10213846;28;96590;-79
2024/01/23 13:35:26;;;;;;;;;;;;;;;16.77;77.85;102420.91;10212955;28;97250;-79
2024/01/23 13:40:29;;;;;;;;;;;;;;;16.89;77.69;102409.03;10212879;28;97010;-79
2024/01/23 13:45:32;;;;;;;;;;;;;;;17.72;74.73;102408.94;10211391;28;96608;-79
2024/01/23 13:50:37;;;;;;;;;;;;;;;18.57;71.39;102412.03;10215865;28;97364;-79
2024/01/23 13:55:41;;;;;;;;;;;;;;;19.55;68.89;102403.56;10240336;28;97223;-79
2024/01/23 14:00:44;;;;;;;;;;;;;;;19.83;66.66;102411.25;10227159;28;96743;-79
2024/01/23 14:05:49;;;;;;;;;;;;;;;19.73;65.67;102401.91;10252754;28;97640;-79
2024/01/23 14:10:52;;;;;;;;;;;;;;;20.12;63.74;102398.34;10252232;28;96688;-79
2024/01/23 14:15:55;;;;;;;;;;;;;;;19.34;65.91;102401.75;10226502;28;97669;-79
2024/01/23 14:20:59;;;;;;;;;;;;;;;18.55;68.63;102397.88;10252644;28;96715;-79
2024/01/23 14:26:03;;;;;;;;;;;;;;;17.88;71.15;102384.34;10251557;28;96705;-79
2024/01/23 14:31:06;;;;;;;;;;;;;;;17.72;71.81;102388.50;10227040;28;96721;-79
2024/01/23 14:36:11;;;;;;;;;;;;;;;18.68;68.81;102385.81;10210122;28;96987;-79
2024/01/23 14:41:14;;;;;;;;;;;;;;;19.11;67.23;102383.16;10211091;28;97055;-79
2024/01/23 14:46:17;;;;;;;;;;;;;;;19.39;66.51;102377.53;10211240;28;96758;-79
2024/01/23 14:51:24;;;;;;;;;;;;;;;19.28;66.17;102375.31;10236922;28;97501;-79
2024/01/23 14:56:27;;;;;;;;;;;;;;;19.84;64.39;102362.22;10251040;28;96820;-79
2024/01/23 15:01:31;;;;;;;;;;;;;;;19.92;64.13;102362.75;10250693;28;96801;-79
2024/01/23 15:06:38;;;;;;;;;;;;;;;19.80;63.55;102358.84;10249545;28;97143;-79
2024/01/23 15:11:43;;;;;;;;;;;;;;;19.81;64.21;102355.22;10250990;28;96976;-79
2024/01/23 15:16:48;;;;;;;;;;;;;;;19.77;64.27;102366.13;10249684;28;97776;-79
2024/01/23 15:21:53;;;;;;;;;;;;;;;19.38;64.75;102362.44;10227802;28;96728;-79
2024/01/23 15:26:57;;;;;;;;;;;;;;;19.22;65.47;102367.56;10208263;28;96717;-79
2024/01/23 15:32:00;;;;;;;;;;;;;;;18.91;66.59;102380.41;10209536;28;96680;-79
2024/01/23 15:37:06;;;;;;;;;;;;;;;18.91;66.61;102378.63;10209657;28;96662;-79
2024/01/23 15:42:09;;;;;;;;;;;;;;;18.62;67.35;102386.94;10209484;28;97106;-79
2024/01/23 15:47:12;;;;;;;;;;;;;;;18.96;66.67;102406.00;10214387;28;96667;-79
2024/01/23 15:52:17;;;;;;;;;;;;;;;18.93;67.57;102395.44;10249885;28;96743;-79
2024/01/23 15:57:21;;;;;;;;;;;;;;;18.74;67.22;102398.91;10214077;28;97177;-79
2024/01/23 16:02:24;;;;;;;;;;;;;;;18.46;67.92;102401.75;10209353;28;96631;-79
2024/01/23 16:07:29;;;;;;;;;;;;;;;17.97;69.71;102418.66;10208255;28;97046;-79
2024/01/23 16:12:32;;;;;;;;;;;;;;;17.79;70.36;102423.78;10213238;28;96784;-79
2024/01/23 16:17:39;;;;;;;;;;;;;;;17.83;70.68;102420.94;10206770;28;97284;-79
2024/01/23 16:22:49;;;;;;;;;;;;;;;17.89;70.50;102426.06;10208174;28;96678;-79
2024/01/23 16:27:53;;;;;;;;;;;;;;;17.73;71.02;102427.50;10208368;28;96711;-79
2024/01/23 16:32:56;;;;;;;;;;;;;;;17.43;72.22;102433.84;10207982;28;96752;-79
2024/01/23 16:38:01;;;;;;;;;;;;;;;17.33;72.65;102440.38;10207858;28;97038;-79
2024/01/23 16:43:04;;;;;;;;;;;;;;;17.04;73.80;102449.31;10214759;28;97304;-79
2024/01/23 16:48:08;;;;;;;;;;;;;;;16.70;74.94;102447.75;10215027;28;97155;-79
2024/01/23 16:53:15;;;;;;;;;;;;;;;16.46;75.92;102459.09;10244486;28;97238;-79
2024/01/23 16:58:21;;;;;;;;;;;;;;;16.26;77.43;102456.09;10254672;28;97230;-78
2024/01/23 17:03:25;;;;;;;;;;;;;;;16.19;77.58;102454.50;10236077;28;97198;-79
2024/01/23 17:08:34;;;;;;;;;;;;;;;16.09;78.07;102453.91;10212926;28;96776;-79
2024/01/23 17:13:37;;;;;;;;;;;;;;;16.00;78.72;102461.22;10247967;28;98194;-79
2024/01/23 17:18:40;;;;;;;;;;;;;;;15.91;79.43;102454.38;10272466;28;96935;-79
2024/01/23 17:23:47;;;;;;;;;;;;;;;15.85;80.03;102442.16;10213732;28;97501;-79
2024/01/23 17:28:50;;;;;;;;;;;;;;;15.79;80.21;102452.94;10213410;28;97117;-79
2024/01/23 17:33:56;;;;;;;;;;;;;;;15.77;80.56;102448.56;10213314;28;97368;-79
2024/01/23 17:39:01;;;;;;;;;;;;;;;15.75;80.62;102464.53;10213677;28;96821;-79
2024/01/23 17:44:04;;;;;;;;;;;;;;;15.78;80.42;102466.25;10232059;28;96622;-79
2024/01/23 17:49:07;;;;;;;;;;;;;;;15.74;81.00;102469.88;10293748;22;98477;-79
2024/01/23 17:54:12;;;;;;;;;;;;;;;15.75;80.99;102485.78;10294090;28;97000;-79
2024/01/23 17:59:15;;;;;;;;;;;;;;;15.76;81.09;102484.88;10292183;28;97353;-79
2024/01/23 18:04:18;;;;;;;;;;;;;;;15.73;80.93;102502.66;10293360;28;96747;-79
2024/01/23 18:09:25;;;;;;;;;;;;;;;15.75;80.92;102493.75;10293088;28;96784;-79
2024/01/23 18:14:29;;;;;;;;;;;;;;;15.71;81.20;102504.47;10292480;28;97378;-79
2024/01/23 18:19:32;;;;;;;;;;;;;;;15.69;81.47;102508.97;10292346;28;97253;-79
2024/01/23 18:24:39;;;;;;;;;;;;;;;15.66;81.70;102509.03;10292920;28;97323;-79
2024/01/23 18:29:42;;;;;;;;;;;;;;;15.66;81.47;102517.88;10292424;28;96781;-79
2024/01/23 18:34:45;;;;;;;;;;;;;;;15.66;81.41;102515.22;10293163;28;97218;-79
2024/01/23 18:39:51;;;;;;;;;;;;;;;15.67;81.55;102524.91;10290974;28;97832;-79
2024/01/23 18:44:55;;;;;;;;;;;;;;;15.60;81.47;102515.38;10281825;28;97469;-79
2024/01/23 18:50:04;;;;;;;;;;;;;;;15.54;82.48;102519.94;10332165;28;96730;-79
2024/01/23 18:55:12;;;;;;;;;;;;;;;15.44;82.95;102508.66;10332714;28;97323;-79
2024/01/23 19:00:16;;;;;;;;;;;;;;;15.39;83.03;102510.56;10331653;28;97340;-79
2024/01/23 19:05:20;;;;;;;;;;;;;;;15.39;83.16;102512.38;10290860;28;97036;-79
2024/01/23 19:10:28;;;;;;;;;;;;;;;15.35;83.32;102508.03;10290858;28;97084;-78
2024/01/23 19:15:32;;;;;;;;;;;;;;;15.37;83.23;102506.22;10290527;28;96706;-79
2024/01/23 19:20:40;;;;;;;;;;;;;;;15.36;84.00;102505.34;10291225;28;96687;-79
2024/01/23 19:25:47;;;;;;;;;;;;;;;15.36;84.01;102509.75;10290980;28;96713;-79
2024/01/23 19:30:53;;;;;;;;;;;;;;;15.38;83.87;102507.94;10290162;28;96685;-79
2024/01/23 19:35:57;;;;;;;;;;;;;;;15.37;84.08;102506.22;10290765;28;97352;-79
2024/01/23 19:41:03;;;;;;;;;;;;;;;15.35;84.18;102498.31;10289138;28;96766;-79
2024/01/23 19:46:08;;;;;;;;;;;;;;;15.22;85.08;102506.53;10290197;28;97150;-79
2024/01/23 19:51:12;;;;;;;;;;;;;;;15.30;84.08;102502.81;10290693;28;96921;-79
2024/01/23 19:56:20;;;;;;;;;;;;;;;15.24;84.52;102489.69;10290239;28;97361;-78
2024/01/23 20:01:24;;;;;;;;;;;;;;;15.19;85.20;102494.22;10289274;28;96844;-78
2024/01/23 20:06:28;;;;;;;;;;;;;;;15.19;85.16;102490.69;10289418;28;96701;-79
2024/01/23 20:11:35;;;;;;;;;;;;;;;15.13;85.58;102494.34;10289688;28;96809;-79
2024/01/23 20:16:40;;;;;;;;;;;;;;;15.15;84.99;102491.66;10288264;28;96908;-78
2024/01/23 20:21:44;;;;;;;;;;;;;;;15.11;85.68;102503.25;10289348;28;96662;-78
2024/01/23 20:26:51;;;;;;;;;;;;;;;15.08;85.41;102501.53;10289874;28;97128;-78
2024/01/23 20:31:56;;;;;;;;;;;;;;;15.05;85.99;102488.34;10287679;28;97398;-79
2024/01/23 20:37:00;;;;;;;;;;;;;;;15.06;85.68;102491.88;10288779;28;96740;-79
2024/01/23 20:42:11;;;;;;;;;;;;;;;14.99;86.37;102501.72;10289033;28;96821;-79
2024/01/23 20:47:16;;;;;;;;;;;;;;;15.00;86.16;102494.66;10247555;28;97624;-79
2024/01/23 20:52:19;;;;;;;;;;;;;;;14.94;86.63;102500.97;10247517;28;96691;-78
2024/01/23 20:57:23;;;;;;;;;;;;;;;14.97;86.46;102500.03;10247242;28;96826;-79
2024/01/23 21:02:26;;;;;;;;;;;;;;;14.97;86.55;102497.38;10276108;28;96943;-79
2024/01/23 21:07:30;;;;;;;;;;;;;;;14.92;86.53;102494.84;10288572;28;97186;-79
2024/01/23 21:12:34;;;;;;;;;;;;;;;14.93;86.41;102507.19;10287753;28;97345;-79
2024/01/23 21:17:37;;;;;;;;;;;;;;;14.93;86.60;102507.19;10288186;28;97185;-79
2024/01/23 21:22:42;;;;;;;;;;;;;;;14.90;86.59;102496.66;10286894;28;96718;-78
2024/01/23 21:27:46;;;;;;;;;;;;;;;14.85;87.08;102500.31;10292750;28;97205;-78
2024/01/23 21:32:50;;;;;;;;;;;;;;;14.81;87.29;102507.44;10293586;28;96742;-79
2024/01/23 21:37:56;;;;;;;;;;;;;;;14.82;87.36;102504.75;10329968;28;97289;-79
2024/01/23 21:43:00;;;;;;;;;;;;;;;14.82;86.88;102518.00;10293947;28;97118;-79
2024/01/23 21:48:05;;;;;;;;;;;;;;;14.79;87.11;102506.59;10293297;28;96911;-79
2024/01/23 21:53:09;;;;;;;;;;;;;;;14.75;87.36;102503.13;10294050;28;96681;-79
2024/01/23 21:58:13;;;;;;;;;;;;;;;14.75;86.93;102510.22;10294065;28;96829;-79
2024/01/23 22:03:17;;;;;;;;;;;;;;;14.75;86.89;102503.13;10293246;28;97390;-79
2024/01/23 22:08:20;;;;;;;;;;;;;;;14.76;87.01;102504.03;10293424;28;97053;-78
2024/01/23 22:13:26;;;;;;;;;;;;;;;14.72;87.06;102499.69;10291934;28;97062;-79
2024/01/23 22:18:29;;;;;;;;;;;;;;;14.72;87.08;102516.47;10292103;28;96786;-79
2024/01/23 22:23:33;;;;;;;;;;;;;;;14.70;87.00;102499.72;10292593;28;96722;-79
2024/01/23 22:28:37;;;;;;;;;;;;;;;14.71;87.49;102506.75;10292808;28;97218;-79
2024/01/23 22:33:41;;;;;;;;;;;;;;;14.73;86.95;102504.09;10291976;28;96649;-78
2024/01/23 22:38:45;;;;;;;;;;;;;;;14.69;87.11;102505.06;10316959;28;97428;-79
2024/01/23 22:43:52;;;;;;;;;;;;;;;14.68;87.16;102508.59;10292901;28;97197;-78
2024/01/23 22:48:56;;;;;;;;;;;;;;;14.66;87.36;102494.53;10292072;28;97773;-78
2024/01/23 22:54:00;;;;;;;;;;;;;;;14.64;86.91;102501.63;10291136;28;96750;-78
2024/01/23 22:59:07;;;;;;;;;;;;;;;14.62;86.65;102501.66;10291894;28;96938;-79
2024/01/23 23:04:11;;;;;;;;;;;;;;;14.61;87.05;102506.97;10290344;28;98124;-79
2024/01/23 23:09:16;;;;;;;;;;;;;;;14.60;86.92;102507.88;10291479;28;97230;-78
2024/01/23 23:14:22;;;;;;;;;;;;;;;14.57;87.15;102513.25;10290267;28;96917;-79
2024/01/23 23:19:26;;;;;;;;;;;;;;;14.57;87.02;102506.19;10290880;28;96795;-79
2024/01/23 23:24:31;;;;;;;;;;;;;;;14.60;87.32;102516.72;10290733;28;96703;-79
2024/01/23 23:29:37;;;;;;;;;;;;;;;14.62;87.23;102521.97;10291045;28;97354;-79
2024/01/23 23:34:42;;;;;;;;;;;;;;;14.54;86.87;102516.81;10311458;28;96902;-79
2024/01/23 23:39:46;;;;;;;;;;;;;;;14.55;87.13;102523.00;10313078;28;96666;-79
2024/01/23 23:44:53;;;;;;;;;;;;;;;14.57;87.21;102515.91;10289477;28;96783;-79
2024/01/23 23:49:58;;;;;;;;;;;;;;;14.53;87.24;102511.56;10290296;28;97554;-79
2024/01/23 23:55:02;;;;;;;;;;;;;;;14.53;87.51;102527.47;10288733;28;97605;-79
